sensor_id;sensor_type;location;lat;lon;timestamp;temperature;humidity
17774;DHT22;9011;33.236;-97.118;2022-10-12T00:00:22;23.20;99.90
17774;DHT22;9011;33.236;-97.118;2022-10-12T00:02:51;23.20;99.90
17774;DHT22;9011;33.236;-97.118;2022-10-12T00:05:21;23.10;99.90
17774;DHT22;9011;33.236;-97.118;2022-10-12T00:07:49;23.10;99.90
17774;DHT22;9011;33.236;-97.118;2022-10-12T00:10:18;23.00;99.90
17774;DHT22;9011;33.236;-97.118;2022-10-12T00:12:46;23.00;99.90
17774;DHT22;9011;33.236;-97.118;2022-10-12T00:15:15;22.90;99.90
17774;DHT22;9011;33.236;-97.118;2022-10-12T00:17:44;23.00;99.90
17774;DHT22;9011;33.236;-97.118;2022-10-12T00:20:12;23.00;99.90
17774;DHT22;9011;33.236;-97.118;2022-10-12T00:22:42;23.00;99.90
17774;DHT22;9011;33.236;-97.118;2022-10-12T00:25:11;22.90;99.90
17774;DHT22;9011;33.236;-97.118;2022-10-12T00:27:39;23.00;99.90
17774;DHT22;9011;33.236;-97.118;2022-10-12T00:30:09;22.90;99.90
17774;DHT22;9011;33.236;-97.118;2022-10-12T00:32:38;22.90;99.90
17774;DHT22;9011;33.236;-97.118;2022-10-12T00:35:07;22.90;99.90
17774;DHT22;9011;33.236;-97.118;2022-10-12T00:37:35;22.90;99.90
17774;DHT22;9011;33.236;-97.118;2022-10-12T00:40:06;22.90;99.90
17774;DHT22;9011;33.236;-97.118;2022-10-12T00:42:35;22.90;99.90
17774;DHT22;9011;33.236;-97.118;2022-10-12T00:45:03;22.80;99.90
17774;DHT22;9011;33.236;-97.118;2022-10-12T00:47:34;22.70;99.90
17774;DHT22;9011;33.236;-97.118;2022-10-12T00:50:09;22.70;99.90
17774;DHT22;9011;33.236;-97.118;2022-10-12T00:52:41;22.70;99.90
17774;DHT22;9011;33.236;-97.118;2022-10-12T00:55:15;22.60;99.90
17774;DHT22;9011;33.236;-97.118;2022-10-12T00:57:45;22.50;99.90
17774;DHT22;9011;33.236;-97.118;2022-10-12T01:00:14;22.50;99.90
17774;DHT22;9011;33.236;-97.118;2022-10-12T01:02:43;22.50;99.90
17774;DHT22;9011;33.236;-97.118;2022-10-12T01:05:14;22.50;99.90
17774;DHT22;9011;33.236;-97.118;2022-10-12T01:07:43;22.50;99.90
17774;DHT22;9011;33.236;-97.118;2022-10-12T01:10:13;22.40;99.90
17774;DHT22;9011;33.236;-97.118;2022-10-12T01:12:42;22.30;99.90
17774;DHT22;9011;33.236;-97.118;2022-10-12T01:15:12;22.30;99.90
17774;DHT22;9011;33.236;-97.118;2022-10-12T01:17:49;22.30;99.90
17774;DHT22;9011;33.236;-97.118;2022-10-12T01:20:32;22.30;99.90
17774;DHT22;9011;33.236;-97.118;2022-10-12T01:23:23;22.30;99.90
17774;DHT22;9011;33.236;-97.118;2022-10-12T01:26:18;22.20;99.90
17774;DHT22;9011;33.236;-97.118;2022-10-12T01:28:58;22.10;99.90
17774;DHT22;9011;33.236;-97.118;2022-10-12T01:31:38;22.10;99.90
17774;DHT22;9011;33.236;-97.118;2022-10-12T01:34:12;22.10;99.90
17774;DHT22;9011;33.236;-97.118;2022-10-12T01:36:47;22.10;99.90
17774;DHT22;9011;33.236;-97.118;2022-10-12T01:39:22;21.90;99.90
17774;DHT22;9011;33.236;-97.118;2022-10-12T01:41:54;21.80;99.90
17774;DHT22;9011;33.236;-97.118;2022-10-12T01:44:25;21.90;99.90
17774;DHT22;9011;33.236;-97.118;2022-10-12T01:46:57;21.90;99.90
17774;DHT22;9011;33.236;-97.118;2022-10-12T01:49:27;21.60;99.90
17774;DHT22;9011;33.236;-97.118;2022-10-12T01:52:24;21.60;99.90
17774;DHT22;9011;33.236;-97.118;2022-10-12T01:55:16;21.70;99.90
17774;DHT22;9011;33.236;-97.118;2022-10-12T01:57:55;21.60;99.90
17774;DHT22;9011;33.236;-97.118;2022-10-12T02:00:26;21.60;99.90
17774;DHT22;9011;33.236;-97.118;2022-10-12T02:03:00;21.60;99.90
17774;DHT22;9011;33.236;-97.118;2022-10-12T02:05:36;21.40;99.90
17774;DHT22;9011;33.236;-97.118;2022-10-12T02:08:08;21.30;99.90
17774;DHT22;9011;33.236;-97.118;2022-10-12T02:10:45;21.20;99.90
17774;DHT22;9011;33.236;-97.118;2022-10-12T02:13:16;21.10;99.90
17774;DHT22;9011;33.236;-97.118;2022-10-12T02:15:47;21.10;99.90
17774;DHT22;9011;33.236;-97.118;2022-10-12T02:18:19;21.10;99.90
17774;DHT22;9011;33.236;-97.118;2022-10-12T02:20:50;21.00;99.90
17774;DHT22;9011;33.236;-97.118;2022-10-12T02:23:22;21.10;99.90
17774;DHT22;9011;33.236;-97.118;2022-10-12T02:25:52;21.00;99.90
17774;DHT22;9011;33.236;-97.118;2022-10-12T02:28:23;21.00;99.90
17774;DHT22;9011;33.236;-97.118;2022-10-12T02:30:59;20.90;99.90
17774;DHT22;9011;33.236;-97.118;2022-10-12T02:33:35;21.00;99.90
17774;DHT22;9011;33.236;-97.118;2022-10-12T02:36:09;21.00;99.90
17774;DHT22;9011;33.236;-97.118;2022-10-12T02:38:42;21.00;99.90
17774;DHT22;9011;33.236;-97.118;2022-10-12T02:41:16;20.90;99.90
17774;DHT22;9011;33.236;-97.118;2022-10-12T02:43:49;20.80;99.90
17774;DHT22;9011;33.236;-97.118;2022-10-12T02:46:20;20.70;99.90
17774;DHT22;9011;33.236;-97.118;2022-10-12T02:48:53;20.80;99.90
17774;DHT22;9011;33.236;-97.118;2022-10-12T02:51:26;20.80;99.90
17774;DHT22;9011;33.236;-97.118;2022-10-12T02:53:55;20.70;99.90
17774;DHT22;9011;33.236;-97.118;2022-10-12T02:56:24;20.80;99.90
17774;DHT22;9011;33.236;-97.118;2022-10-12T02:58:53;20.80;99.90
17774;DHT22;9011;33.236;-97.118;2022-10-12T03:01:21;20.70;99.90
17774;DHT22;9011;33.236;-97.118;2022-10-12T03:03:51;20.70;99.90
17774;DHT22;9011;33.236;-97.118;2022-10-12T03:06:19;20.70;99.90
17774;DHT22;9011;33.236;-97.118;2022-10-12T03:08:48;20.70;99.90
17774;DHT22;9011;33.236;-97.118;2022-10-12T03:11:16;20.60;99.90
17774;DHT22;9011;33.236;-97.118;2022-10-12T03:13:45;20.70;99.90
17774;DHT22;9011;33.236;-97.118;2022-10-12T03:16:13;20.60;99.90
17774;DHT22;9011;33.236;-97.118;2022-10-12T03:18:42;20.60;99.90
17774;DHT22;9011;33.236;-97.118;2022-10-12T03:21:12;20.60;99.90
17774;DHT22;9011;33.236;-97.118;2022-10-12T03:23:44;20.70;99.90
17774;DHT22;9011;33.236;-97.118;2022-10-12T03:26:12;20.80;99.90
17774;DHT22;9011;33.236;-97.118;2022-10-12T03:28:41;20.80;99.90
17774;DHT22;9011;33.236;-97.118;2022-10-12T03:31:09;20.80;99.90
17774;DHT22;9011;33.236;-97.118;2022-10-12T03:33:37;20.90;99.90
17774;DHT22;9011;33.236;-97.118;2022-10-12T03:36:07;20.90;99.90
17774;DHT22;9011;33.236;-97.118;2022-10-12T03:38:38;21.00;99.90
17774;DHT22;9011;33.236;-97.118;2022-10-12T03:41:06;21.00;99.90
17774;DHT22;9011;33.236;-97.118;2022-10-12T03:43:35;21.10;99.90
17774;DHT22;9011;33.236;-97.118;2022-10-12T03:46:03;21.10;99.90
17774;DHT22;9011;33.236;-97.118;2022-10-12T03:48:32;21.20;99.90
17774;DHT22;9011;33.236;-97.118;2022-10-12T03:51:00;21.20;99.90
17774;DHT22;9011;33.236;-97.118;2022-10-12T03:53:28;21.30;99.90
17774;DHT22;9011;33.236;-97.118;2022-10-12T03:55:58;21.30;99.90
17774;DHT22;9011;33.236;-97.118;2022-10-12T03:58:26;21.30;99.90
17774;DHT22;9011;33.236;-97.118;2022-10-12T04:00:55;21.40;99.90
17774;DHT22;9011;33.236;-97.118;2022-10-12T04:03:23;21.40;99.90
17774;DHT22;9011;33.236;-97.118;2022-10-12T04:05:52;21.50;99.90
17774;DHT22;9011;33.236;-97.118;2022-10-12T04:08:21;21.50;99.90
17774;DHT22;9011;33.236;-97.118;2022-10-12T04:10:50;21.60;99.90
17774;DHT22;9011;33.236;-97.118;2022-10-12T04:13:20;21.70;99.90
17774;DHT22;9011;33.236;-97.118;2022-10-12T04:15:48;21.60;99.90
17774;DHT22;9011;33.236;-97.118;2022-10-12T04:18:16;21.70;99.90
17774;DHT22;9011;33.236;-97.118;2022-10-12T04:20:47;21.70;99.90
17774;DHT22;9011;33.236;-97.118;2022-10-12T04:23:15;21.70;99.90
17774;DHT22;9011;33.236;-97.118;2022-10-12T04:25:44;21.70;99.90
17774;DHT22;9011;33.236;-97.118;2022-10-12T04:28:12;21.80;99.90
17774;DHT22;9011;33.236;-97.118;2022-10-12T04:30:43;21.90;99.90
17774;DHT22;9011;33.236;-97.118;2022-10-12T04:33:11;22.00;99.90
17774;DHT22;9011;33.236;-97.118;2022-10-12T04:35:40;21.90;99.90
17774;DHT22;9011;33.236;-97.118;2022-10-12T04:38:11;22.10;99.90
17774;DHT22;9011;33.236;-97.118;2022-10-12T04:40:39;22.10;99.90
17774;DHT22;9011;33.236;-97.118;2022-10-12T04:43:08;22.20;99.90
17774;DHT22;9011;33.236;-97.118;2022-10-12T04:45:36;22.20;99.90
17774;DHT22;9011;33.236;-97.118;2022-10-12T04:48:06;22.20;99.90
17774;DHT22;9011;33.236;-97.118;2022-10-12T04:50:35;22.30;99.90
17774;DHT22;9011;33.236;-97.118;2022-10-12T04:53:04;22.30;99.90
17774;DHT22;9011;33.236;-97.118;2022-10-12T04:55:32;22.30;99.90
17774;DHT22;9011;33.236;-97.118;2022-10-12T04:58:00;22.30;99.90
17774;DHT22;9011;33.236;-97.118;2022-10-12T05:00:29;22.40;99.90
17774;DHT22;9011;33.236;-97.118;2022-10-12T05:02:57;22.40;99.90
17774;DHT22;9011;33.236;-97.118;2022-10-12T05:05:27;22.40;99.90
17774;DHT22;9011;33.236;-97.118;2022-10-12T05:07:55;22.40;99.90
17774;DHT22;9011;33.236;-97.118;2022-10-12T05:10:24;22.40;99.90
17774;DHT22;9011;33.236;-97.118;2022-10-12T05:12:52;22.50;99.90
17774;DHT22;9011;33.236;-97.118;2022-10-12T05:15:20;22.50;99.90
17774;DHT22;9011;33.236;-97.118;2022-10-12T05:17:49;22.50;99.90
17774;DHT22;9011;33.236;-97.118;2022-10-12T05:20:17;22.40;99.90
17774;DHT22;9011;33.236;-97.118;2022-10-12T05:22:47;22.40;99.90
17774;DHT22;9011;33.236;-97.118;2022-10-12T05:25:16;22.40;99.90
17774;DHT22;9011;33.236;-97.118;2022-10-12T05:27:45;22.40;99.90
17774;DHT22;9011;33.236;-97.118;2022-10-12T05:30:13;22.40;99.90
17774;DHT22;9011;33.236;-97.118;2022-10-12T05:32:41;22.40;99.90
17774;DHT22;9011;33.236;-97.118;2022-10-12T05:35:10;22.40;99.90
17774;DHT22;9011;33.236;-97.118;2022-10-12T05:37:38;22.40;99.90
17774;DHT22;9011;33.236;-97.118;2022-10-12T05:40:09;22.40;99.90
17774;DHT22;9011;33.236;-97.118;2022-10-12T05:42:37;22.40;99.90
17774;DHT22;9011;33.236;-97.118;2022-10-12T05:45:06;22.40;99.90
17774;DHT22;9011;33.236;-97.118;2022-10-12T05:47:35;22.30;99.90
17774;DHT22;9011;33.236;-97.118;2022-10-12T05:50:04;22.40;99.90
17774;DHT22;9011;33.236;-97.118;2022-10-12T05:52:32;22.40;99.90
17774;DHT22;9011;33.236;-97.118;2022-10-12T05:55:01;22.40;99.90
17774;DHT22;9011;33.236;-97.118;2022-10-12T05:57:31;22.40;99.90
17774;DHT22;9011;33.236;-97.118;2022-10-12T05:59:59;22.40;99.90
17774;DHT22;9011;33.236;-97.118;2022-10-12T06:02:28;22.40;99.90
17774;DHT22;9011;33.236;-97.118;2022-10-12T06:04:56;22.40;99.90
17774;DHT22;9011;33.236;-97.118;2022-10-12T06:07:24;22.50;99.90
17774;DHT22;9011;33.236;-97.118;2022-10-12T06:09:52;22.40;99.90
17774;DHT22;9011;33.236;-97.118;2022-10-12T06:12:21;22.50;99.90
17774;DHT22;9011;33.236;-97.118;2022-10-12T06:14:51;22.50;99.90
17774;DHT22;9011;33.236;-97.118;2022-10-12T06:17:19;22.40;99.90
17774;DHT22;9011;33.236;-97.118;2022-10-12T06:19:47;22.40;99.90
17774;DHT22;9011;33.236;-97.118;2022-10-12T06:22:15;22.40;99.90
17774;DHT22;9011;33.236;-97.118;2022-10-12T06:24:44;22.40;99.90
17774;DHT22;9011;33.236;-97.118;2022-10-12T06:27:12;22.40;99.90
17774;DHT22;9011;33.236;-97.118;2022-10-12T06:29:42;22.40;99.90
17774;DHT22;9011;33.236;-97.118;2022-10-12T06:32:12;22.40;99.90
17774;DHT22;9011;33.236;-97.118;2022-10-12T06:34:41;22.30;99.90
17774;DHT22;9011;33.236;-97.118;2022-10-12T06:37:09;22.30;99.90
17774;DHT22;9011;33.236;-97.118;2022-10-12T06:39:37;22.30;99.90
17774;DHT22;9011;33.236;-97.118;2022-10-12T06:42:06;22.20;99.90
17774;DHT22;9011;33.236;-97.118;2022-10-12T06:44:35;22.30;99.90
17774;DHT22;9011;33.236;-97.118;2022-10-12T06:47:04;22.30;99.90
17774;DHT22;9011;33.236;-97.118;2022-10-12T06:49:34;22.30;99.90
17774;DHT22;9011;33.236;-97.118;2022-10-12T06:52:02;22.20;99.90
17774;DHT22;9011;33.236;-97.118;2022-10-12T06:54:30;22.20;99.90
17774;DHT22;9011;33.236;-97.118;2022-10-12T06:56:59;22.20;99.90
17774;DHT22;9011;33.236;-97.118;2022-10-12T06:59:27;22.10;99.90
17774;DHT22;9011;33.236;-97.118;2022-10-12T07:01:55;22.20;99.90
17774;DHT22;9011;33.236;-97.118;2022-10-12T07:04:24;22.10;99.90
17774;DHT22;9011;33.236;-97.118;2022-10-12T07:06:54;22.10;99.90
17774;DHT22;9011;33.236;-97.118;2022-10-12T07:09:22;22.20;99.90
17774;DHT22;9011;33.236;-97.118;2022-10-12T07:11:50;22.10;99.90
17774;DHT22;9011;33.236;-97.118;2022-10-12T07:14:19;22.10;99.90
17774;DHT22;9011;33.236;-97.118;2022-10-12T07:16:48;22.10;99.90
17774;DHT22;9011;33.236;-97.118;2022-10-12T07:19:16;22.10;99.90
17774;DHT22;9011;33.236;-97.118;2022-10-12T07:21:44;22.10;99.90
17774;DHT22;9011;33.236;-97.118;2022-10-12T07:24:14;22.10;99.90
17774;DHT22;9011;33.236;-97.118;2022-10-12T07:26:43;22.00;99.90
17774;DHT22;9011;33.236;-97.118;2022-10-12T07:29:11;22.00;99.90
17774;DHT22;9011;33.236;-97.118;2022-10-12T07:31:39;22.00;99.90
17774;DHT22;9011;33.236;-97.118;2022-10-12T07:34:08;22.00;99.90
17774;DHT22;9011;33.236;-97.118;2022-10-12T07:36:36;22.00;99.90
17774;DHT22;9011;33.236;-97.118;2022-10-12T07:39:05;22.00;99.90
17774;DHT22;9011;33.236;-97.118;2022-10-12T07:41:35;21.90;99.90
17774;DHT22;9011;33.236;-97.118;2022-10-12T07:44:04;22.00;99.90
17774;DHT22;9011;33.236;-97.118;2022-10-12T07:46:32;21.90;99.90
17774;DHT22;9011;33.236;-97.118;2022-10-12T07:49:01;21.90;99.90
17774;DHT22;9011;33.236;-97.118;2022-10-12T07:51:29;21.90;99.90
17774;DHT22;9011;33.236;-97.118;2022-10-12T07:53:57;21.90;99.90
17774;DHT22;9011;33.236;-97.118;2022-10-12T07:56:26;21.90;99.90
17774;DHT22;9011;33.236;-97.118;2022-10-12T07:58:56;21.90;99.90
17774;DHT22;9011;33.236;-97.118;2022-10-12T08:01:27;21.90;99.90
17774;DHT22;9011;33.236;-97.118;2022-10-12T08:03:57;21.90;99.90
17774;DHT22;9011;33.236;-97.118;2022-10-12T08:06:27;21.80;99.90
17774;DHT22;9011;33.236;-97.118;2022-10-12T08:08:57;21.80;99.90
17774;DHT22;9011;33.236;-97.118;2022-10-12T08:11:26;21.90;99.90
17774;DHT22;9011;33.236;-97.118;2022-10-12T08:13:56;21.80;99.90
17774;DHT22;9011;33.236;-97.118;2022-10-12T08:16:24;21.80;99.90
17774;DHT22;9011;33.236;-97.118;2022-10-12T08:18:53;21.80;99.90
17774;DHT22;9011;33.236;-97.118;2022-10-12T08:21:21;21.80;99.90
17774;DHT22;9011;33.236;-97.118;2022-10-12T08:23:49;21.70;99.90
17774;DHT22;9011;33.236;-97.118;2022-10-12T08:26:18;21.80;99.90
17774;DHT22;9011;33.236;-97.118;2022-10-12T08:28:46;21.70;99.90
17774;DHT22;9011;33.236;-97.118;2022-10-12T08:31:16;21.70;99.90
17774;DHT22;9011;33.236;-97.118;2022-10-12T08:33:44;21.70;99.90
17774;DHT22;9011;33.236;-97.118;2022-10-12T08:36:13;21.70;99.90
17774;DHT22;9011;33.236;-97.118;2022-10-12T08:38:41;21.60;99.90
17774;DHT22;9011;33.236;-97.118;2022-10-12T08:41:22;21.70;99.90
17774;DHT22;9011;33.236;-97.118;2022-10-12T08:44:08;21.60;99.90
17774;DHT22;9011;33.236;-97.118;2022-10-12T08:46:40;21.60;99.90
17774;DHT22;9011;33.236;-97.118;2022-10-12T08:49:13;21.60;99.90
17774;DHT22;9011;33.236;-97.118;2022-10-12T08:51:46;21.60;99.90
17774;DHT22;9011;33.236;-97.118;2022-10-12T08:54:19;21.60;99.90
17774;DHT22;9011;33.236;-97.118;2022-10-12T08:56:47;21.50;99.90
17774;DHT22;9011;33.236;-97.118;2022-10-12T08:59:17;21.50;99.90
17774;DHT22;9011;33.236;-97.118;2022-10-12T09:01:58;21.50;99.90
17774;DHT22;9011;33.236;-97.118;2022-10-12T09:04:40;21.50;99.90
17774;DHT22;9011;33.236;-97.118;2022-10-12T09:07:16;21.50;99.90
17774;DHT22;9011;33.236;-97.118;2022-10-12T09:09:56;21.40;99.90
17774;DHT22;9011;33.236;-97.118;2022-10-12T09:12:37;21.50;99.90
17774;DHT22;9011;33.236;-97.118;2022-10-12T09:15:14;21.40;99.90
17774;DHT22;9011;33.236;-97.118;2022-10-12T09:17:48;21.40;99.90
17774;DHT22;9011;33.236;-97.118;2022-10-12T09:20:20;21.40;99.90
17774;DHT22;9011;33.236;-97.118;2022-10-12T09:22:50;21.40;99.90
17774;DHT22;9011;33.236;-97.118;2022-10-12T09:25:24;21.50;99.90
17774;DHT22;9011;33.236;-97.118;2022-10-12T09:27:53;21.30;99.90
17774;DHT22;9011;33.236;-97.118;2022-10-12T09:30:23;21.40;99.90
17774;DHT22;9011;33.236;-97.118;2022-10-12T09:33:08;21.40;99.90
17774;DHT22;9011;33.236;-97.118;2022-10-12T09:35:43;21.30;99.90
17774;DHT22;9011;33.236;-97.118;2022-10-12T09:38:13;21.30;99.90
17774;DHT22;9011;33.236;-97.118;2022-10-12T09:40:41;21.20;99.90
17774;DHT22;9011;33.236;-97.118;2022-10-12T09:43:09;21.30;99.90
17774;DHT22;9011;33.236;-97.118;2022-10-12T09:45:38;21.30;99.90
17774;DHT22;9011;33.236;-97.118;2022-10-12T09:48:17;21.20;99.90
17774;DHT22;9011;33.236;-97.118;2022-10-12T09:50:49;21.20;99.90
17774;DHT22;9011;33.236;-97.118;2022-10-12T09:53:23;21.20;99.90
17774;DHT22;9011;33.236;-97.118;2022-10-12T09:56:00;21.20;99.90
17774;DHT22;9011;33.236;-97.118;2022-10-12T09:58:30;21.20;99.90
17774;DHT22;9011;33.236;-97.118;2022-10-12T10:01:22;21.20;99.90
17774;DHT22;9011;33.236;-97.118;2022-10-12T10:04:07;21.10;99.90
17774;DHT22;9011;33.236;-97.118;2022-10-12T10:06:37;21.10;99.90
17774;DHT22;9011;33.236;-97.118;2022-10-12T10:09:05;21.10;99.90
17774;DHT22;9011;33.236;-97.118;2022-10-12T10:11:38;21.10;99.90
17774;DHT22;9011;33.236;-97.118;2022-10-12T10:14:13;21.10;99.90
17774;DHT22;9011;33.236;-97.118;2022-10-12T10:16:46;21.10;99.90
17774;DHT22;9011;33.236;-97.118;2022-10-12T10:19:20;21.10;99.90
17774;DHT22;9011;33.236;-97.118;2022-10-12T10:21:52;21.10;99.90
17774;DHT22;9011;33.236;-97.118;2022-10-12T10:24:25;21.10;99.90
17774;DHT22;9011;33.236;-97.118;2022-10-12T10:26:56;21.00;99.90
17774;DHT22;9011;33.236;-97.118;2022-10-12T10:29:34;21.00;99.90
17774;DHT22;9011;33.236;-97.118;2022-10-12T10:32:19;21.00;99.90
17774;DHT22;9011;33.236;-97.118;2022-10-12T10:35:04;21.00;99.90
17774;DHT22;9011;33.236;-97.118;2022-10-12T10:37:33;21.00;99.90
17774;DHT22;9011;33.236;-97.118;2022-10-12T10:40:03;21.00;99.90
17774;DHT22;9011;33.236;-97.118;2022-10-12T10:42:32;20.90;99.90
17774;DHT22;9011;33.236;-97.118;2022-10-12T10:45:02;20.90;99.90
17774;DHT22;9011;33.236;-97.118;2022-10-12T10:47:33;20.90;99.90
17774;DHT22;9011;33.236;-97.118;2022-10-12T10:50:22;20.90;99.90
17774;DHT22;9011;33.236;-97.118;2022-10-12T10:52:54;20.90;99.90
17774;DHT22;9011;33.236;-97.118;2022-10-12T10:55:30;20.80;99.90
17774;DHT22;9011;33.236;-97.118;2022-10-12T10:58:03;20.90;99.90
17774;DHT22;9011;33.236;-97.118;2022-10-12T11:00:34;20.80;99.90
17774;DHT22;9011;33.236;-97.118;2022-10-12T11:03:06;20.80;99.90
17774;DHT22;9011;33.236;-97.118;2022-10-12T11:05:43;20.80;99.90
17774;DHT22;9011;33.236;-97.118;2022-10-12T11:08:15;20.80;99.90
17774;DHT22;9011;33.236;-97.118;2022-10-12T11:10:48;20.80;99.90
17774;DHT22;9011;33.236;-97.118;2022-10-12T11:13:22;20.80;99.90
17774;DHT22;9011;33.236;-97.118;2022-10-12T11:15:55;20.80;99.90
17774;DHT22;9011;33.236;-97.118;2022-10-12T11:18:32;20.70;99.90
17774;DHT22;9011;33.236;-97.118;2022-10-12T11:21:07;20.70;99.90
17774;DHT22;9011;33.236;-97.118;2022-10-12T11:23:43;20.70;99.90
17774;DHT22;9011;33.236;-97.118;2022-10-12T11:26:19;20.70;99.90
17774;DHT22;9011;33.236;-97.118;2022-10-12T11:28:51;20.70;99.90
17774;DHT22;9011;33.236;-97.118;2022-10-12T11:31:22;20.70;99.90
17774;DHT22;9011;33.236;-97.118;2022-10-12T11:33:51;20.70;99.90
17774;DHT22;9011;33.236;-97.118;2022-10-12T11:36:26;20.70;99.90
17774;DHT22;9011;33.236;-97.118;2022-10-12T11:38:58;20.70;99.90
17774;DHT22;9011;33.236;-97.118;2022-10-12T11:41:33;20.70;99.90
17774;DHT22;9011;33.236;-97.118;2022-10-12T11:44:10;20.70;99.90
17774;DHT22;9011;33.236;-97.118;2022-10-12T11:46:45;20.70;99.90
17774;DHT22;9011;33.236;-97.118;2022-10-12T11:49:17;20.70;99.90
17774;DHT22;9011;33.236;-97.118;2022-10-12T11:51:50;20.70;99.90
17774;DHT22;9011;33.236;-97.118;2022-10-12T11:54:27;20.70;99.90
17774;DHT22;9011;33.236;-97.118;2022-10-12T11:57:02;20.60;99.90
17774;DHT22;9011;33.236;-97.118;2022-10-12T11:59:35;20.60;99.90
17774;DHT22;9011;33.236;-97.118;2022-10-12T12:02:14;20.60;99.90
17774;DHT22;9011;33.236;-97.118;2022-10-12T12:04:45;20.60;99.90
17774;DHT22;9011;33.236;-97.118;2022-10-12T12:07:44;20.70;99.90
17774;DHT22;9011;33.236;-97.118;2022-10-12T12:10:51;20.60;99.90
17774;DHT22;9011;33.236;-97.118;2022-10-12T12:13:23;20.60;99.90
17774;DHT22;9011;33.236;-97.118;2022-10-12T12:25:19;20.50;99.90
17774;DHT22;9011;33.236;-97.118;2022-10-12T12:27:51;20.50;99.90
17774;DHT22;9011;33.236;-97.118;2022-10-12T12:30:38;20.50;99.90
17774;DHT22;9011;33.236;-97.118;2022-10-12T12:33:26;20.50;99.90
17774;DHT22;9011;33.236;-97.118;2022-10-12T12:35:57;20.50;99.90
17774;DHT22;9011;33.236;-97.118;2022-10-12T12:38:29;20.50;99.90
17774;DHT22;9011;33.236;-97.118;2022-10-12T12:41:03;20.50;99.90
17774;DHT22;9011;33.236;-97.118;2022-10-12T12:49:40;20.50;99.90
17774;DHT22;9011;33.236;-97.118;2022-10-12T12:52:19;20.50;99.90
17774;DHT22;9011;33.236;-97.118;2022-10-12T12:55:07;20.50;99.90
17774;DHT22;9011;33.236;-97.118;2022-10-12T12:57:55;20.50;99.90
17774;DHT22;9011;33.236;-97.118;2022-10-12T13:00:28;20.50;99.90
17774;DHT22;9011;33.236;-97.118;2022-10-12T13:03:26;20.50;99.90
17774;DHT22;9011;33.236;-97.118;2022-10-12T13:09:35;20.60;99.90
17774;DHT22;9011;33.236;-97.118;2022-10-12T13:12:27;20.70;99.90
17774;DHT22;9011;33.236;-97.118;2022-10-12T13:15:27;20.70;99.90
17774;DHT22;9011;33.236;-97.118;2022-10-12T13:21:09;20.80;99.90
17774;DHT22;9011;33.236;-97.118;2022-10-12T13:23:39;20.80;99.90
17774;DHT22;9011;33.236;-97.118;2022-10-12T13:26:09;20.90;99.90
17774;DHT22;9011;33.236;-97.118;2022-10-12T13:28:40;20.90;99.90
17774;DHT22;9011;33.236;-97.118;2022-10-12T13:31:14;21.00;99.90
17774;DHT22;9011;33.236;-97.118;2022-10-12T13:33:47;21.10;99.90
17774;DHT22;9011;33.236;-97.118;2022-10-12T13:36:20;21.10;99.90
17774;DHT22;9011;33.236;-97.118;2022-10-12T13:38:54;21.20;99.90
17774;DHT22;9011;33.236;-97.118;2022-10-12T13:41:25;21.20;99.90
17774;DHT22;9011;33.236;-97.118;2022-10-12T13:43:57;21.40;99.90
17774;DHT22;9011;33.236;-97.118;2022-10-12T13:46:40;21.40;99.90
17774;DHT22;9011;33.236;-97.118;2022-10-12T13:49:13;21.50;99.90
17774;DHT22;9011;33.236;-97.118;2022-10-12T13:51:43;21.50;99.90
17774;DHT22;9011;33.236;-97.118;2022-10-12T13:54:15;21.60;99.90
17774;DHT22;9011;33.236;-97.118;2022-10-12T13:56:45;21.70;99.90
17774;DHT22;9011;33.236;-97.118;2022-10-12T13:59:16;21.80;99.90
17774;DHT22;9011;33.236;-97.118;2022-10-12T14:01:56;21.90;99.90
17774;DHT22;9011;33.236;-97.118;2022-10-12T14:04:27;22.00;99.90
17774;DHT22;9011;33.236;-97.118;2022-10-12T14:07:00;22.10;99.90
17774;DHT22;9011;33.236;-97.118;2022-10-12T14:09:38;22.30;99.90
17774;DHT22;9011;33.236;-97.118;2022-10-12T14:12:09;22.40;99.90
17774;DHT22;9011;33.236;-97.118;2022-10-12T14:14:39;22.50;99.90
17774;DHT22;9011;33.236;-97.118;2022-10-12T14:17:14;22.60;99.90
17774;DHT22;9011;33.236;-97.118;2022-10-12T14:19:44;22.70;99.90
17774;DHT22;9011;33.236;-97.118;2022-10-12T14:22:19;22.90;99.90
17774;DHT22;9011;33.236;-97.118;2022-10-12T14:24:48;22.90;99.90
17774;DHT22;9011;33.236;-97.118;2022-10-12T14:27:23;23.10;99.90
17774;DHT22;9011;33.236;-97.118;2022-10-12T14:29:55;23.20;99.90
17774;DHT22;9011;33.236;-97.118;2022-10-12T14:32:40;23.30;99.90
17774;DHT22;9011;33.236;-97.118;2022-10-12T14:35:12;23.40;99.90
17774;DHT22;9011;33.236;-97.118;2022-10-12T14:37:41;23.50;99.90
17774;DHT22;9011;33.236;-97.118;2022-10-12T14:40:33;23.70;99.90
17774;DHT22;9011;33.236;-97.118;2022-10-12T14:43:05;23.80;99.90
17774;DHT22;9011;33.236;-97.118;2022-10-12T14:45:35;24.00;99.90
17774;DHT22;9011;33.236;-97.118;2022-10-12T14:48:08;24.10;99.90
17774;DHT22;9011;33.236;-97.118;2022-10-12T14:50:41;24.30;99.90
17774;DHT22;9011;33.236;-97.118;2022-10-12T14:53:11;24.40;99.90
17774;DHT22;9011;33.236;-97.118;2022-10-12T14:55:40;24.50;99.90
17774;DHT22;9011;33.236;-97.118;2022-10-12T14:58:14;24.60;99.90
17774;DHT22;9011;33.236;-97.118;2022-10-12T15:00:43;24.70;99.90
17774;DHT22;9011;33.236;-97.118;2022-10-12T15:03:13;24.80;99.90
17774;DHT22;9011;33.236;-97.118;2022-10-12T15:05:43;24.90;99.90
17774;DHT22;9011;33.236;-97.118;2022-10-12T15:08:11;25.10;99.90
17774;DHT22;9011;33.236;-97.118;2022-10-12T15:10:39;25.20;99.90
17774;DHT22;9011;33.236;-97.118;2022-10-12T15:13:12;25.30;99.90
17774;DHT22;9011;33.236;-97.118;2022-10-12T15:15:42;25.50;99.90
17774;DHT22;9011;33.236;-97.118;2022-10-12T15:18:12;25.50;99.90
17774;DHT22;9011;33.236;-97.118;2022-10-12T15:20:40;25.60;99.90
17774;DHT22;9011;33.236;-97.118;2022-10-12T15:23:09;25.60;99.90
17774;DHT22;9011;33.236;-97.118;2022-10-12T15:25:40;25.70;99.90
17774;DHT22;9011;33.236;-97.118;2022-10-12T15:28:10;25.90;99.90
17774;DHT22;9011;33.236;-97.118;2022-10-12T15:30:38;26.00;99.90
17774;DHT22;9011;33.236;-97.118;2022-10-12T15:33:07;26.10;99.90
17774;DHT22;9011;33.236;-97.118;2022-10-12T15:35:38;26.30;99.90
17774;DHT22;9011;33.236;-97.118;2022-10-12T15:38:07;26.30;99.90
17774;DHT22;9011;33.236;-97.118;2022-10-12T15:40:36;26.50;99.90
17774;DHT22;9011;33.236;-97.118;2022-10-12T15:43:05;26.70;99.90
17774;DHT22;9011;33.236;-97.118;2022-10-12T15:45:36;26.80;99.90
17774;DHT22;9011;33.236;-97.118;2022-10-12T15:48:06;26.90;99.90
17774;DHT22;9011;33.236;-97.118;2022-10-12T15:50:38;27.00;99.90
17774;DHT22;9011;33.236;-97.118;2022-10-12T15:53:07;27.20;99.90
17774;DHT22;9011;33.236;-97.118;2022-10-12T15:55:37;27.30;99.90
17774;DHT22;9011;33.236;-97.118;2022-10-12T15:58:05;27.40;99.90
17774;DHT22;9011;33.236;-97.118;2022-10-12T16:00:34;27.60;99.90
17774;DHT22;9011;33.236;-97.118;2022-10-12T16:03:02;27.80;99.90
17774;DHT22;9011;33.236;-97.118;2022-10-12T16:05:33;27.90;99.90